createdAt,value
2023-01-09T00:00:46.746Z,94.21386719
2023-01-09T00:01:48.100Z,94.21386719
2023-01-09T00:02:50.620Z,94.21386719
2023-01-09T00:03:51.828Z,94.21386719
2023-01-09T00:04:52.504Z,94.21386719
2023-01-09T00:05:53.912Z,94.11010742
2023-01-09T00:06:55.014Z,94.11010742
2023-01-09T00:07:56.593Z,94.11010742
2023-01-09T00:08:58.472Z,93.90258789
2023-01-09T00:10:29.796Z,93.79882813
2023-01-09T00:11:30.621Z,93.69506836
2023-01-09T00:12:32.491Z,93.59130859
2023-01-09T00:13:33.369Z,93.59130859
2023-01-09T00:14:34.387Z,93.59130859
2023-01-09T00:15:35.099Z,93.59130859
2023-01-09T00:16:36.002Z,93.59130859
2023-01-09T00:17:37.127Z,93.49365234
2023-01-09T00:18:38.157Z,93.49365234
2023-01-09T00:19:38.955Z,93.49365234
2023-01-09T00:20:39.823Z,93.49365234
2023-01-09T00:21:41.433Z,93.59130859
2023-01-09T00:22:42.921Z,93.59130859
2023-01-09T00:23:43.673Z,93.59130859
2023-01-09T00:24:44.423Z,93.59130859
2023-01-09T00:25:45.218Z,93.59130859
2023-01-09T00:26:46.139Z,93.59130859
2023-01-09T00:27:47.413Z,93.59130859
2023-01-09T00:28:48.159Z,93.59130859
2023-01-09T00:29:48.974Z,93.64013672
2023-01-09T00:30:49.741Z,93.64013672
2023-01-09T00:31:50.567Z,93.64013672
2023-01-09T00:32:51.928Z,93.64013672
2023-01-09T00:33:53.077Z,93.64013672
2023-01-09T00:34:54.048Z,93.64013672
2023-01-09T00:35:54.939Z,93.64013672
2023-01-09T00:36:55.676Z,93.64013672
2023-01-09T00:37:56.757Z,93.53637695
2023-01-09T00:38:58.466Z,93.43261719
2023-01-09T00:40:29.969Z,93.43261719
2023-01-09T00:41:30.639Z,93.43261719
2023-01-09T00:42:31.542Z,93.43261719
2023-01-09T00:43:32.820Z,93.53637695
2023-01-09T00:44:33.794Z,93.64013672
2023-01-09T00:45:34.750Z,93.64013672
2023-01-09T00:46:35.443Z,93.64013672
2023-01-09T00:47:36.395Z,93.53637695
2023-01-09T00:48:37.179Z,93.53637695
2023-01-09T00:49:37.976Z,93.53637695
2023-01-09T00:50:39.057Z,93.32885742
2023-01-09T00:51:40.857Z,93.22509766
2023-01-09T00:52:42.680Z,93.12133789
2023-01-09T00:53:43.926Z,93.22509766
2023-01-09T00:54:44.846Z,93.22509766
2023-01-09T00:55:45.652Z,93.32885742
2023-01-09T00:56:46.399Z,93.32885742
2023-01-09T00:57:47.405Z,93.32885742
2023-01-09T00:58:48.541Z,93.32885742
2023-01-09T00:59:49.443Z,93.32885742
2023-01-09T01:00:50.500Z,93.32885742
2023-01-09T01:01:52.220Z,93.22509766
2023-01-09T01:02:53.948Z,93.12133789
2023-01-09T01:03:55.246Z,93.12133789
2023-01-09T01:04:56.203Z,93.12133789
2023-01-09T01:05:56.978Z,93.01757813
2023-01-09T01:06:57.675Z,93.1640625
2023-01-09T01:08:28.928Z,93.1640625
2023-01-09T01:09:29.633Z,93.1640625
2023-01-09T01:10:30.362Z,93.26782227
2023-01-09T01:11:31.303Z,93.22509766
2023-01-09T01:12:32.012Z,93.12133789
2023-01-09T01:13:33.325Z,93.12133789
2023-01-09T01:14:34.078Z,93.26782227
2023-01-09T01:15:34.973Z,93.37158203
2023-01-09T01:16:35.816Z,93.57910156
2023-01-09T01:17:36.451Z,93.68286133
2023-01-09T01:18:37.210Z,93.78662109
2023-01-09T01:19:37.948Z,93.88427734
2023-01-09T01:20:38.683Z,93.98803711
2023-01-09T01:21:40.459Z,94.09179688
2023-01-09T01:22:41.272Z,94.19555664
2023-01-09T01:23:42.947Z,94.19555664
2023-01-09T01:24:43.807Z,93.98803711
2023-01-09T01:25:44.915Z,93.88427734
2023-01-09T01:26:46.484Z,94.09179688
2023-01-09T01:27:47.222Z,93.93310547
2023-01-09T01:28:47.958Z,93.20678711
2023-01-09T01:29:48.730Z,93.15185547
2023-01-09T01:30:49.627Z,93.76831055
2023-01-09T01:31:50.548Z,93.09082031
2023-01-09T01:32:51.212Z,93.91479492
2023-01-09T01:33:51.985Z,94.42749023
2023-01-09T01:34:52.743Z,94.53125
2023-01-09T01:35:53.553Z,94.37255859
2023-01-09T01:36:55.351Z,94.16503906
2023-01-09T01:37:56.163Z,94.78149414
2023-01-09T01:38:57.660Z,94.88525391
2023-01-09T01:40:28.842Z,95.13549805
2023-01-09T01:41:29.886Z,95.34301758
2023-01-09T01:42:30.513Z,95.95947266
2023-01-09T01:43:31.533Z,95.03173828
2023-01-09T01:44:32.706Z,95.13549805
2023-01-09T01:45:33.505Z,95.13549805
2023-01-09T01:46:34.974Z,95.34301758
2023-01-09T01:47:35.815Z,94.97070313
2023-01-09T01:48:36.581Z,94.97070313
2023-01-09T01:49:37.325Z,95.07446289
2023-01-09T01:50:38.085Z,95.90454102
2023-01-09T01:51:39.458Z,95.80078125
2023-01-09T01:52:40.253Z,94.97070313
2023-01-09T01:53:41.009Z,94.87304688
2023-01-09T01:54:41.817Z,94.87304688
2023-01-09T01:55:42.659Z,94.87304688
2023-01-09T01:56:43.948Z,94.87304688
2023-01-09T01:57:44.823Z,95.28198242
2023-01-09T01:58:45.595Z,95.22094727
2023-01-09T01:59:46.407Z,95.32470703
2023-01-09T02:00:47.189Z,95.32470703
2023-01-09T02:01:48.066Z,94.81201172
2023-01-09T02:02:48.872Z,95.01953125
2023-01-09T02:03:49.539Z,95.32470703
2023-01-09T02:04:50.960Z,95.32470703
2023-01-09T02:05:51.767Z,95.63598633
2023-01-09T02:06:53.431Z,95.22094727
2023-01-09T02:07:54.241Z,94.91577148
2023-01-09T02:08:54.977Z,95.22094727
2023-01-09T02:09:55.778Z,94.91577148
2023-01-09T02:10:56.532Z,95.22094727
2023-01-09T02:12:28.124Z,95.4284668
2023-01-09T02:13:29.063Z,95.22094727
2023-01-09T02:14:29.781Z,95.01953125
2023-01-09T02:15:30.594Z,95.32470703
2023-01-09T02:16:31.386Z,95.53222656
2023-01-09T02:17:32.861Z,95.63598633
2023-01-09T02:18:33.710Z,95.22094727
2023-01-09T02:19:34.505Z,95.06225586
2023-01-09T02:20:35.277Z,95.26977539
2023-01-09T02:21:36.983Z,95.06225586
2023-01-09T02:22:37.782Z,95.06225586
2023-01-09T02:23:38.678Z,94.75097656
2023-01-09T02:24:39.444Z,94.85473633
2023-01-09T02:25:40.286Z,94.85473633
2023-01-09T02:26:41.068Z,94.6472168
2023-01-09T02:27:42.863Z,95.06225586
2023-01-09T02:28:43.650Z,94.85473633
2023-01-09T02:29:44.413Z,94.85473633
2023-01-09T02:30:45.312Z,94.75097656
2023-01-09T02:31:46.151Z,94.54345703
2023-01-09T02:32:47.010Z,94.23217773
2023-01-09T02:33:47.803Z,94.23217773
2023-01-09T02:34:48.644Z,94.23217773
2023-01-09T02:35:49.491Z,94.03076172
2023-01-09T02:36:51.488Z,94.23217773
2023-01-09T02:37:52.310Z,94.6472168
2023-01-09T02:38:53.149Z,94.3359375
2023-01-09T02:39:53.926Z,93.71948242
2023-01-09T02:40:54.741Z,93.30444336
2023-01-09T02:41:56.484Z,93.30444336
2023-01-09T02:43:28.131Z,92.99316406
2023-01-09T02:44:29.000Z,92.78564453
2023-01-09T02:45:29.953Z,92.99316406
2023-01-09T02:46:30.727Z,93.09692383
2023-01-09T02:47:32.349Z,92.78564453
2023-01-09T02:48:33.191Z,91.75415039
2023-01-09T02:49:34.038Z,92.06542969
2023-01-09T02:50:34.825Z,91.85791016
2023-01-09T02:51:35.593Z,91.58935547
2023-01-09T02:52:36.441Z,91.54663086
2023-01-09T02:53:37.950Z,91.1315918
2023-01-09T02:54:38.788Z,90.61889648
2023-01-09T02:55:39.530Z,90.76538086
2023-01-09T02:56:40.391Z,90.97290039
2023-01-09T02:57:41.848Z,90.51513672
2023-01-09T02:58:42.626Z,90.51513672
2023-01-09T02:59:43.450Z,90.20385742
2023-01-09T03:00:44.330Z,90.0390625
2023-01-09T03:01:45.208Z,89.21508789
2023-01-09T03:02:45.950Z,89.31884766
2023-01-09T03:03:46.703Z,89.11132813
2023-01-09T03:04:47.581Z,89.31884766
2023-01-09T03:05:48.441Z,89.62402344
2023-01-09T03:06:49.286Z,89.7277832
2023-01-09T03:07:50.901Z,89.83154297
2023-01-09T03:08:51.669Z,89.11132813
2023-01-09T03:09:53.503Z,88.69628906
2023-01-09T03:10:54.264Z,88.48876953
2023-01-09T03:11:55.165Z,88.5925293
2023-01-09T03:12:58.785Z,88.38500977
2023-01-09T03:14:27.758Z,88.34228516
2023-01-09T03:15:28.653Z,87.76245117
2023-01-09T03:16:29.467Z,87.45727539
2023-01-09T03:17:30.304Z,87.76245117
2023-01-09T03:18:31.858Z,87.86621094
2023-01-09T03:19:33.340Z,88.17749023
2023-01-09T03:20:34.172Z,88.28125
2023-01-09T03:21:35.951Z,88.07373047
2023-01-09T03:22:36.759Z,88.17749023
2023-01-09T03:23:37.723Z,88.07373047
2023-01-09T03:24:38.581Z,88.07373047
2023-01-09T03:25:39.431Z,87.9699707
2023-01-09T03:26:40.217Z,88.07373047
2023-01-09T03:27:41.035Z,88.5925293
2023-01-09T03:28:42.474Z,88.38500977
2023-01-09T03:29:43.261Z,88.28125
2023-01-09T03:30:44.080Z,87.9699707
2023-01-09T03:31:44.959Z,88.38500977
2023-01-09T03:32:45.665Z,88.5925293
2023-01-09T03:33:46.428Z,88.38500977
2023-01-09T03:34:47.277Z,87.9699707
2023-01-09T03:35:48.193Z,87.76245117
2023-01-09T03:36:49.082Z,87.9699707
2023-01-09T03:37:49.892Z,87.86621094
2023-01-09T03:38:51.508Z,87.86621094
2023-01-09T03:39:52.357Z,87.76245117
2023-01-09T03:40:53.343Z,87.76245117
2023-01-09T03:41:54.991Z,87.76245117
2023-01-09T03:42:55.899Z,87.41455078
2023-01-09T03:44:27.127Z,87.20703125
2023-01-09T03:45:28.242Z,87.51831055
2023-01-09T03:46:29.125Z,87.51831055
2023-01-09T03:47:29.992Z,87.51831055
2023-01-09T03:48:30.839Z,87.62207031
2023-01-09T03:49:32.359Z,87.51831055
2023-01-09T03:50:33.188Z,87.47558594
2023-01-09T03:51:34.121Z,87.31079102
2023-01-09T03:52:35.953Z,87.10327148
2023-01-09T03:53:36.847Z,87.37182617
2023-01-09T03:54:37.671Z,87.47558594
2023-01-09T03:55:38.489Z,87.47558594
2023-01-09T03:56:39.396Z,87.5793457
2023-01-09T03:57:40.273Z,87.5793457
2023-01-09T03:58:41.853Z,87.47558594
2023-01-09T03:59:42.837Z,87.78686523
2023-01-09T04:00:44.540Z,87.890625
2023-01-09T04:01:45.428Z,87.78686523
2023-01-09T04:02:46.121Z,88.09814453
2023-01-09T04:03:47.041Z,87.890625
2023-01-09T04:04:47.960Z,87.890625
2023-01-09T04:05:48.781Z,87.68310547
2023-01-09T04:06:49.611Z,87.5793457
2023-01-09T04:07:50.618Z,87.26806641
2023-01-09T04:08:52.430Z,87.47558594
2023-01-09T04:09:53.961Z,87.37182617
2023-01-09T04:10:54.920Z,87.17041016
2023-01-09T04:11:56.177Z,86.65161133
2023-01-09T04:13:27.497Z,86.75537109
2023-01-09T04:14:28.448Z,86.54785156
2023-01-09T04:15:29.359Z,86.1328125
2023-01-09T04:16:30.959Z,86.23657227
2023-01-09T04:17:31.883Z,86.02905273
2023-01-09T04:18:32.678Z,85.41259766
2023-01-09T04:19:34.423Z,84.6862793
2023-01-09T04:20:35.274Z,84.6862793
2023-01-09T04:21:36.190Z,84.17358398
2023-01-09T04:22:37.974Z,84.38110352
2023-01-09T04:23:38.675Z,84.38110352
2023-01-09T04:24:39.522Z,84.06982422
2023-01-09T04:25:40.434Z,84.27734375
2023-01-09T04:26:41.353Z,84.27734375
2023-01-09T04:27:42.309Z,84.48486328
2023-01-09T04:28:43.108Z,84.58862305
2023-01-09T04:29:44.825Z,84.6862793
2023-01-09T04:30:45.778Z,84.58862305
2023-01-09T04:31:46.686Z,83.96606445
2023-01-09T04:32:47.623Z,83.69750977
2023-01-09T04:33:48.422Z,83.79516602
2023-01-09T04:34:49.252Z,83.65478516
2023-01-09T04:35:50.107Z,83.89892578
2023-01-09T04:36:51.047Z,83.69750977
2023-01-09T04:37:52.007Z,83.48999023
2023-01-09T04:38:52.852Z,83.48999023
2023-01-09T04:39:54.424Z,83.07495117
2023-01-09T04:40:55.271Z,82.86743164
2023-01-09T04:42:27.511Z,82.76367188
2023-01-09T04:43:28.461Z,83.07495117
2023-01-09T04:44:29.288Z,83.17871094
2023-01-09T04:45:30.224Z,83.07495117
2023-01-09T04:46:30.987Z,83.2824707
2023-01-09T04:47:31.926Z,83.38623047
2023-01-09T04:48:32.872Z,83.07495117
2023-01-09T04:49:34.433Z,83.17871094
2023-01-09T04:50:35.230Z,83.38623047
2023-01-09T04:51:36.063Z,83.59375
2023-01-09T04:52:38.998Z,83.59375
2023-01-09T04:53:38.294Z,83.59375
2023-01-09T04:54:39.217Z,83.69750977
2023-01-09T04:55:40.124Z,83.73413086
2023-01-09T04:56:41.023Z,83.94165039
2023-01-09T04:57:41.774Z,84.04541016
2023-01-09T04:58:42.723Z,84.25292969
2023-01-09T04:59:44.391Z,84.35668945
2023-01-09T05:00:45.348Z,84.31396484
2023-01-09T05:01:46.234Z,84.14916992
2023-01-09T05:02:46.903Z,84.35668945
2023-01-09T05:03:48.012Z,84.66186523
2023-01-09T05:04:48.804Z,84.86938477
2023-01-09T05:05:49.776Z,85.0769043
2023-01-09T05:06:51.475Z,85.38818359
2023-01-09T05:07:52.374Z,85.38818359
2023-01-09T05:08:53.315Z,85.49194336
2023-01-09T05:09:55.029Z,85.69946289
2023-01-09T05:11:26.932Z,85.83984375
2023-01-09T05:12:28.033Z,85.90698242
2023-01-09T05:13:28.928Z,86.04736328
2023-01-09T05:14:29.891Z,86.15112305
2023-01-09T05:15:31.583Z,85.94360352
2023-01-09T05:16:32.604Z,85.94360352
2023-01-09T05:17:33.377Z,85.83984375
2023-01-09T05:18:34.241Z,86.15112305
2023-01-09T05:19:35.959Z,85.94360352
2023-01-09T05:20:36.868Z,85.94360352
2023-01-09T05:21:37.813Z,85.94360352
2023-01-09T05:22:39.485Z,85.83984375
2023-01-09T05:23:40.386Z,85.83984375
2023-01-09T05:24:41.250Z,85.94360352
2023-01-09T05:25:42.098Z,86.04736328
2023-01-09T05:26:43.056Z,86.04736328
2023-01-09T05:27:43.943Z,85.73608398
2023-01-09T05:28:44.871Z,85.73608398
2023-01-09T05:29:46.525Z,85.73608398
2023-01-09T05:30:47.314Z,85.73608398
2023-01-09T05:31:48.978Z,85.94360352
2023-01-09T05:32:49.899Z,85.83984375
2023-01-09T05:33:50.833Z,85.73608398
2023-01-09T05:34:51.768Z,85.52856445
2023-01-09T05:35:52.571Z,85.83984375
2023-01-09T05:36:53.476Z,86.04736328
2023-01-09T05:37:54.408Z,85.94360352
2023-01-09T05:39:26.496Z,85.83984375
2023-01-09T05:40:32.344Z,85.52856445
2023-01-09T05:41:28.162Z,85.42480469
2023-01-09T05:42:29.985Z,85.42480469
2023-01-09T05:43:30.956Z,85.32104492
2023-01-09T05:44:31.958Z,85.11352539
2023-01-09T05:45:32.844Z,85.01586914
2023-01-09T05:46:33.599Z,84.39331055
2023-01-09T05:47:34.374Z,84.28955078
2023-01-09T05:48:35.380Z,83.97827148
2023-01-09T05:49:36.991Z,83.56323242
2023-01-09T05:50:38.133Z,83.45947266
2023-01-09T05:51:38.835Z,83.15429688
2023-01-09T05:52:40.459Z,83.05053711
2023-01-09T05:53:41.332Z,83.25195313
2023-01-09T05:54:42.252Z,83.45947266
2023-01-09T05:55:43.172Z,83.35571289
2023-01-09T05:56:44.021Z,82.73925781
2023-01-09T05:57:44.816Z,82.32421875
2023-01-09T05:58:45.671Z,82.11669922
2023-01-09T05:59:47.505Z,82.11669922
2023-01-09T06:00:48.385Z,81.80541992
2023-01-09T06:01:49.436Z,81.80541992
2023-01-09T06:02:50.593Z,81.49414063
2023-01-09T06:03:51.301Z,81.18896484
2023-01-09T06:04:52.170Z,80.98144531
2023-01-09T06:05:53.122Z,80.98144531
2023-01-09T06:06:54.015Z,80.98144531
2023-01-09T06:08:25.660Z,80.84106445
2023-01-09T06:09:26.498Z,80.84106445
2023-01-09T06:10:28.151Z,80.84106445
2023-01-09T06:11:29.240Z,80.94482422
2023-01-09T06:12:30.267Z,81.04858398
2023-01-09T06:13:31.962Z,81.14624023
2023-01-09T06:14:32.904Z,81.14624023
2023-01-09T06:15:33.731Z,81.25
2023-01-09T06:16:34.696Z,81.14624023
2023-01-09T06:17:35.662Z,81.14624023
2023-01-09T06:18:36.554Z,81.25
2023-01-09T06:19:37.929Z,81.35375977
2023-01-09T06:20:38.748Z,81.35375977
2023-01-09T06:21:39.701Z,81.14624023
2023-01-09T06:22:41.480Z,81.14624023
2023-01-09T06:23:42.413Z,81.35375977
2023-01-09T06:24:43.307Z,81.35375977
2023-01-09T06:25:44.149Z,81.14624023
2023-01-09T06:26:45.181Z,80.94482422
2023-01-09T06:27:46.077Z,80.94482422
2023-01-09T06:28:47.106Z,80.52978516
2023-01-09T06:29:48.958Z,80.32226563
2023-01-09T06:30:49.824Z,79.90722656
2023-01-09T06:31:50.713Z,80.01098633
2023-01-09T06:32:51.646Z,79.59594727
2023-01-09T06:33:52.643Z,78.97949219
2023-01-09T06:34:53.895Z,78.56445313
2023-01-09T06:36:25.296Z,78.14941406
2023-01-09T06:37:26.101Z,78.14941406
2023-01-09T06:38:27.124Z,77.74047852
2023-01-09T06:39:28.923Z,77.42919922
2023-01-09T06:40:30.469Z,76.80664063
2023-01-09T06:41:31.336Z,76.91040039
2023-01-09T06:42:32.133Z,76.91040039
2023-01-09T06:43:32.972Z,76.32446289
2023-01-09T06:44:33.879Z,76.18408203
2023-01-09T06:45:34.791Z,76.39160156
2023-01-09T06:46:36.417Z,76.18408203
2023-01-09T06:47:37.275Z,76.2878418
2023-01-09T06:48:38.066Z,76.49536133
2023-01-09T06:49:39.044Z,76.49536133
2023-01-09T06:50:40.996Z,76.49536133
2023-01-09T06:51:41.905Z,76.39160156
2023-01-09T06:52:43.478Z,76.08642578
2023-01-09T06:53:44.240Z,75.67138672
2023-01-09T06:54:45.082Z,75.98266602
2023-01-09T06:55:46.594Z,76.08642578
2023-01-09T06:56:47.632Z,76.18408203
2023-01-09T06:57:48.552Z,76.18408203
2023-01-09T06:58:49.291Z,76.39160156
2023-01-09T06:59:50.968Z,76.2878418
2023-01-09T07:00:51.914Z,76.39160156
2023-01-09T07:01:52.871Z,76.39160156
2023-01-09T07:02:53.683Z,76.25732422
2023-01-09T07:04:24.955Z,76.45874023
2023-01-09T07:05:25.825Z,76.45874023
2023-01-09T07:06:26.753Z,76.5625
2023-01-09T07:07:27.902Z,76.45874023
2023-01-09T07:08:29.498Z,76.66625977
2023-01-09T07:09:30.539Z,76.97753906
2023-01-09T07:10:31.924Z,77.18505859
2023-01-09T07:11:32.877Z,77.28881836
2023-01-09T07:12:34.433Z,77.28881836
2023-01-09T07:13:35.400Z,77.18505859
2023-01-09T07:14:36.249Z,76.25732422
2023-01-09T07:15:38.150Z,76.36108398
2023-01-09T07:16:39.260Z,76.01318359
2023-01-09T07:17:40.154Z,76.22070313
2023-01-09T07:18:41.089Z,76.42822266
2023-01-09T07:19:41.981Z,76.53198242
2023-01-09T07:20:43.351Z,76.01318359
2023-01-09T07:21:44.211Z,76.11694336
2023-01-09T07:22:45.110Z,76.25732422
2023-01-09T07:23:46.949Z,76.11694336
2023-01-09T07:24:47.868Z,76.04980469
2023-01-09T07:25:48.711Z,76.04980469
2023-01-09T07:26:49.532Z,76.15356445
2023-01-09T07:27:50.404Z,76.15356445
2023-01-09T07:28:51.309Z,76.25732422
2023-01-09T07:29:52.203Z,76.36108398
2023-01-09T07:31:24.573Z,76.01318359
2023-01-09T07:32:25.324Z,75.49438477
2023-01-09T07:33:26.130Z,75.63476563
2023-01-09T07:34:27.004Z,75.84228516
2023-01-09T07:35:28.066Z,76.04980469
2023-01-09T07:36:28.930Z,75.84228516
2023-01-09T07:37:29.712Z,75.84228516
2023-01-09T07:38:30.549Z,75.94604492
2023-01-09T07:39:31.446Z,76.04980469
2023-01-09T07:40:32.939Z,76.15356445
2023-01-09T07:41:33.742Z,76.15356445
2023-01-09T07:42:35.495Z,76.45874023
2023-01-09T07:43:36.418Z,76.45874023
2023-01-09T07:44:37.362Z,76.45874023
2023-01-09T07:45:38.242Z,76.45874023
2023-01-09T07:46:39.266Z,76.66625977
2023-01-09T07:47:40.889Z,76.77001953
2023-01-09T07:48:41.717Z,76.25732422
2023-01-09T07:49:42.542Z,75.84228516
2023-01-09T07:50:43.935Z,75.84228516
2023-01-09T07:51:44.801Z,75.73852539
2023-01-09T07:52:45.654Z,75.73852539
2023-01-09T07:53:47.333Z,75.94604492
2023-01-09T07:54:48.145Z,75.94604492
2023-01-09T07:55:48.980Z,75.84228516
2023-01-09T07:56:49.931Z,76.04980469
2023-01-09T07:57:50.998Z,75.94604492
2023-01-09T07:58:51.766Z,75.94604492
2023-01-09T07:59:52.557Z,75.21972656
2023-01-09T08:01:25.063Z,74.87792969
2023-01-09T08:02:25.913Z,74.87792969
2023-01-09T08:03:26.806Z,74.77416992
2023-01-09T08:04:27.853Z,74.04785156
2023-01-09T08:05:28.681Z,74.46289063
2023-01-09T08:06:29.556Z,75.29296875
2023-01-09T08:07:30.519Z,74.67041016
2023-01-09T08:08:31.622Z,73.63891602
2023-01-09T08:09:32.323Z,73.12011719
2023-01-09T08:10:33.930Z,73.63891602
2023-01-09T08:11:34.740Z,73.43139648
2023-01-09T08:12:35.652Z,73.84643555
2023-01-09T08:13:36.617Z,73.87695313
2023-01-09T08:14:37.499Z,73.26049805
2023-01-09T08:15:38.331Z,73.26049805
2023-01-09T08:16:39.088Z,73.46801758
2023-01-09T08:17:40.971Z,73.77319336
2023-01-09T08:18:41.928Z,73.87695313
2023-01-09T08:19:42.804Z,73.98071289
2023-01-09T08:20:44.458Z,73.87695313
2023-01-09T08:21:45.236Z,73.87695313
2023-01-09T08:22:46.144Z,73.46801758
2023-01-09T08:23:47.091Z,73.56567383
2023-01-09T08:24:47.924Z,73.66943359
2023-01-09T08:25:49.478Z,73.77319336
2023-01-09T08:26:50.334Z,73.46801758
2023-01-09T08:27:51.163Z,73.46801758
2023-01-09T08:28:52.090Z,73.66943359
2023-01-09T08:29:53.398Z,73.66943359
2023-01-09T08:31:25.452Z,73.87695313
2023-01-09T08:32:26.197Z,74.18823242
2023-01-09T08:33:27.016Z,74.39575195
2023-01-09T08:34:28.233Z,74.56665039
2023-01-09T08:35:29.063Z,74.46289063
2023-01-09T08:36:29.971Z,73.22387695
2023-01-09T08:37:30.792Z,73.22387695
2023-01-09T08:38:31.647Z,73.12011719
2023-01-09T08:39:32.542Z,73.22387695
2023-01-09T08:40:33.998Z,73.32763672
2023-01-09T08:41:34.905Z,73.12011719
2023-01-09T08:42:35.723Z,73.12011719
2023-01-09T08:43:37.408Z,73.12011719
2023-01-09T08:44:38.271Z,73.22387695
2023-01-09T08:45:39.172Z,72.91259766
2023-01-09T08:46:40.178Z,72.80883789
2023-01-09T08:47:40.948Z,73.01635742
2023-01-09T08:48:41.815Z,73.01635742
2023-01-09T08:49:42.644Z,72.60742188
2023-01-09T08:50:43.986Z,72.71118164
2023-01-09T08:51:44.844Z,73.22387695
2023-01-09T08:52:45.736Z,72.88208008
2023-01-09T08:53:46.582Z,72.46704102
2023-01-09T08:54:47.455Z,72.15576172
2023-01-09T08:55:48.945Z,72.05810547
2023-01-09T08:56:49.834Z,72.15576172
2023-01-09T08:57:50.833Z,72.05810547
2023-01-09T08:58:51.741Z,71.85058594
2023-01-09T08:59:53.067Z,71.74682617
2023-01-09T09:01:25.062Z,71.85058594
2023-01-09T09:02:25.919Z,72.05810547
2023-01-09T09:03:26.743Z,72.05810547
2023-01-09T09:04:29.638Z,72.05810547
2023-01-09T09:05:28.834Z,71.9543457
2023-01-09T09:06:29.605Z,71.9543457
2023-01-09T09:07:30.445Z,72.05810547
2023-01-09T09:08:31.330Z,72.05810547
2023-01-09T09:09:32.260Z,71.81396484
2023-01-09T09:10:33.961Z,71.81396484
2023-01-09T09:11:35.442Z,71.22802734
2023-01-09T09:12:36.289Z,71.19750977
2023-01-09T09:13:37.196Z,70.91674805
2023-01-09T09:14:38.178Z,70.8190918
2023-01-09T09:15:39.241Z,70.88623047
2023-01-09T09:16:39.844Z,70.26977539
2023-01-09T09:17:40.703Z,70.37353516
2023-01-09T09:18:42.482Z,70.5078125
2023-01-09T09:19:43.368Z,70.88623047
2023-01-09T09:20:45.060Z,70.57495117
2023-01-09T09:21:45.861Z,70.67871094
2023-01-09T09:22:46.719Z,70.67871094
2023-01-09T09:23:47.570Z,70.71533203
2023-01-09T09:24:48.458Z,70.67871094
2023-01-09T09:25:50.034Z,70.26977539
2023-01-09T09:26:50.924Z,70.30029297
2023-01-09T09:27:51.742Z,70.71533203
2023-01-09T09:29:23.557Z,70.91674805
2023-01-09T09:30:24.532Z,70.7824707
2023-01-09T09:31:26.094Z,71.09375
2023-01-09T09:32:26.909Z,70.88623047
2023-01-09T09:33:27.931Z,70.37353516
2023-01-09T09:34:28.669Z,70.67871094
2023-01-09T09:35:29.627Z,71.50878906
2023-01-09T09:36:30.726Z,71.4050293
2023-01-09T09:37:31.433Z,71.09375
2023-01-09T09:38:32.262Z,70.67871094
2023-01-09T09:39:33.051Z,70.88623047
2023-01-09T09:40:33.919Z,70.47119141
2023-01-09T09:41:35.654Z,70.54443359
2023-01-09T09:42:36.418Z,70.54443359
2023-01-09T09:43:37.301Z,70.54443359
2023-01-09T09:44:38.104Z,70.64819336
2023-01-09T09:45:39.888Z,70.95947266
2023-01-09T09:46:43.127Z,71.06323242
2023-01-09T09:47:41.743Z,71.13037109
2023-01-09T09:48:42.745Z,71.13037109
2023-01-09T09:49:43.526Z,70.41015625
2023-01-09T09:50:44.299Z,71.13037109
2023-01-09T09:51:45.979Z,70.92285156
2023-01-09T09:52:46.891Z,71.23413086
2023-01-09T09:53:47.728Z,71.54541016
2023-01-09T09:54:48.578Z,71.85058594
2023-01-09T09:55:49.340Z,71.64306641
2023-01-09T09:56:51.187Z,70.92285156
2023-01-09T09:57:52.090Z,71.13037109
2023-01-09T09:59:24.940Z,71.23413086
2023-01-09T10:00:23.987Z,71.23413086
2023-01-09T10:01:25.334Z,71.54541016
2023-01-09T10:02:26.283Z,71.33789063
2023-01-09T10:03:33.955Z,71.02661133
2023-01-09T10:04:28.078Z,70.71533203
2023-01-09T10:05:29.986Z,71.13037109
2023-01-09T10:06:30.853Z,71.23413086
2023-01-09T10:07:31.685Z,71.02661133
2023-01-09T10:08:32.479Z,70.8190918
2023-01-09T10:09:33.395Z,70.20263672
2023-01-09T10:10:34.193Z,70.09887695
2023-01-09T10:11:35.829Z,69.99511719
2023-01-09T10:12:36.680Z,69.58618164
2023-01-09T10:13:37.534Z,69.37866211
2023-01-09T10:14:38.438Z,69.17114258
2023-01-09T10:15:40.045Z,68.03588867
2023-01-09T10:16:40.836Z,68.2434082
2023-01-09T10:17:41.639Z,68.03588867
2023-01-09T10:18:42.439Z,67.93212891
2023-01-09T10:19:43.218Z,69.06738281
2023-01-09T10:20:44.009Z,70.09887695
2023-01-09T10:21:45.404Z,71.06323242
2023-01-09T10:22:46.243Z,71.88720703
2023-01-09T10:23:47.121Z,72.60742188
2023-01-09T10:24:48.124Z,73.15673828
2023-01-09T10:25:49.993Z,73.57177734
2023-01-09T10:26:50.923Z,73.67553711
2023-01-09T10:27:52.153Z,73.87695313
2023-01-09T10:29:23.326Z,74.39575195
2023-01-09T10:30:24.213Z,74.18823242
2023-01-09T10:31:26.143Z,74.22485352
2023-01-09T10:32:27.014Z,74.22485352
2023-01-09T10:33:28.274Z,74.29199219
2023-01-09T10:34:29.108Z,73.98071289
2023-01-09T10:35:39.298Z,73.46801758
2023-01-09T10:36:31.159Z,73.36425781
2023-01-09T10:37:33.034Z,73.46801758
2023-01-09T10:38:34.168Z,73.67553711
2023-01-09T10:39:35.338Z,73.26049805
2023-01-09T10:40:36.409Z,73.60229492
2023-01-09T10:41:37.992Z,74.12109375
2023-01-09T10:42:39.505Z,74.63378906
2023-01-09T10:43:40.397Z,75.46386719
2023-01-09T10:44:41.347Z,76.18408203
2023-01-09T10:45:42.267Z,76.18408203
2023-01-09T10:46:43.426Z,76.2878418
2023-01-09T10:47:44.234Z,76.73339844
2023-01-09T10:48:45.220Z,76.49536133
2023-01-09T10:49:46.228Z,76.8371582
2023-01-09T10:50:47.280Z,76.70288086
2023-01-09T10:51:49.237Z,76.11694336
2023-01-09T10:52:50.095Z,75.90942383
2023-01-09T10:53:51.164Z,75.90942383
2023-01-09T10:55:22.567Z,75.87280273
2023-01-09T10:56:23.565Z,75.67138672
2023-01-09T10:57:24.407Z,75.87280273
2023-01-09T10:58:25.371Z,75.67138672
2023-01-09T10:59:26.262Z,75.46386719
2023-01-09T11:00:27.305Z,75.25634766
2023-01-09T11:01:29.084Z,75.36010742
2023-01-09T11:02:30.107Z,74.63378906
2023-01-09T11:03:31.261Z,74.94506836
2023-01-09T11:04:32.233Z,75.15258789
2023-01-09T11:05:33.161Z,74.73754883
2023-01-09T11:06:34.177Z,74.5300293
2023-01-09T11:07:35.388Z,74.63378906
2023-01-09T11:08:36.279Z,74.84130859
2023-01-09T11:09:37.314Z,74.32861328
2023-01-09T11:10:38.151Z,74.43237305
2023-01-09T11:11:40.004Z,74.84130859
2023-01-09T11:12:41.008Z,74.5300293